Ashton, Nebraska
Current Conditions -  °F | °C
As of 2:53 AM on Friday 31 Oct 2014 (Local Time) from KODX Reporting Station
Overcast Overcast  
Wind Chill: -5°   Ceiling: 1900
Heat Index:   Visibility: 10mi
Dew Point: -3°   Wind: 15mph
Humidity: 75%   Direction: 30°NNE
Pressure: 30.5"   Gusts: 20mph
Location:  41.25°N, 98.79°W
Report Text: KODX 310753Z AUTO 03013G17KT 10SM OVC019 01/M03 A3050 RMK AO2 SLP339 T00061033
Loading
Personal Weather Stations






























Interactive Weather Map
Tropical Storm Tracking
New forecast layout! Learn more

10-Day Weather Forecast

Advertisements
Track Severe Weather on mobile